Portada
METAR-TAF:

METAR-TAF

Aeroports :

Córdoba, Argentina

latitud: 31-19S, longitud: 064-13W, altitud: 484 m

Observació

L'informe es va fer fa 39 minuts, a les 13:00 UTC
Vent 1 kt amb direcció variable
Temperatura 21°C
Humitat 88%
Pressió 1018 hPa
Visibilitat: 9000 m
Núvols disperses a una alçada de 3500 ft
Cel ennuvolat a una alçada de 10000 ft

METAR: SACO 311300Z VRB01KT 9000 SCT035 BKN100 21/19 Q1018 NOSIG

Hora: 10:39 (13:39 UTC)

Pronòstic

L'informe es va fer fa 2 hores i 39 minuts, a les 11:00 UTC
Pronòstic vàlid del 31 a les 12 UTC al 01 a les 12 UTC
Vent 5 kt del Nord/Nord-Oest
Visibilitat: 7000 m
Cel ennuvolat a una alçada de 2000 ft
Cel cobert a una alçada de 4000 ft
pluja, boirina
Evolucionant progressivament
l' 31 a les 15 UTC al 31 a les 18 UTC
Vent 10 kt del Nord/Nord-Est
Visibilitat 10 km o més
Cel ennuvolat a una alçada de 2000 ft

TAF: SACO 311100Z 3112/0112 34005KT 7000 -RA BR BKN020 OVC040 TX27/3117Z TN20/0110Z BECMG 3115/3118 02010KT 9999 NSW BKN020

Observacions i pronòstics meteorològics de més de 4000 aeroports (METAR i TAF).

Les estacions disponibles són els punts grocs i vermells al mapa.

Posi el ratolí al punt desitjat per veure el nom de l'estació.

Feu clic per veure les observacions i els pronòstics meteorològics.

Per canviar el mapa: feu clic els botons verds amb una creu de color negre per apropar; al botó verd amb un guió per allunyar la imatge; o en les fletxes verdes per a mapes adjacents.


METAR-TAF: